Time;durP1;ratioP1;P1;durP2;ratioP2;P2;SDS_P1;SDS_P2;PMS_P1;PMS_P2;Temp;Humidity;BMP_temperature;BMP_pressure;BME280_temperature;BME280_humidity;BME280_pressure;Samples;Min_cycle;Max_cycle;Signal;HPM_P1;HPM_P2
2021/10/23 03:30:51;;;;;;;13.33;3.70;;;5.20;99.90;;;;;;4989347;28;20399;-82
2021/10/23 03:33:17;;;;;;;14.30;3.63;;;5.20;99.90;;;;;;4989512;28;20377;-84
2021/10/23 03:35:42;;;;;;;15.67;4.00;;;5.20;99.90;;;;;;4990761;28;20949;-82
2021/10/23 03:38:08;;;;;;;13.50;4.00;;;5.20;99.90;;;;;;4990491;28;20381;-83
2021/10/23 03:40:33;;;;;;;14.48;3.67;;;5.10;99.90;;;;;;4990165;28;20384;-83
2021/10/23 03:42:59;;;;;;;16.30;4.13;;;5.20;99.90;;;;;;4989599;28;20405;-84
2021/10/23 03:45:25;;;;;;;14.30;3.60;;;5.10;99.90;;;;;;4989933;28;20400;-84
2021/10/23 03:47:51;;;;;;;12.65;3.58;;;5.10;99.90;;;;;;4990149;28;20423;-84
2021/10/23 03:50:16;;;;;;;15.00;3.83;;;5.10;99.90;;;;;;4990092;28;20435;-83
2021/10/23 03:52:42;;;;;;;14.43;3.80;;;5.20;99.90;;;;;;4989072;28;20384;-84
2021/10/23 03:55:10;;;;;;;18.58;4.13;;;5.20;99.90;;;;;;4989908;28;20396;-82
2021/10/23 03:57:36;;;;;;;14.50;3.72;;;5.30;99.90;;;;;;4989830;28;20420;-84
2021/10/23 04:00:04;;;;;;;11.23;3.35;;;5.30;99.90;;;;;;4988278;28;20417;-83
2021/10/23 04:02:30;;;;;;;13.15;3.65;;;5.40;99.90;;;;;;4989278;28;20400;-84
2021/10/23 04:04:55;;;;;;;13.38;3.70;;;5.40;99.90;;;;;;4989689;28;20412;-83
2021/10/23 04:07:21;;;;;;;15.43;3.80;;;5.40;99.90;;;;;;4989661;28;20391;-82
2021/10/23 04:09:47;;;;;;;16.88;3.88;;;5.30;99.90;;;;;;4989462;28;20381;-83
2021/10/23 04:12:12;;;;;;;14.07;3.50;;;5.30;99.90;;;;;;4988373;28;20483;-82
2021/10/23 04:14:38;;;;;;;17.63;3.60;;;5.20;99.90;;;;;;4987095;28;20420;-83
2021/10/23 04:17:03;;;;;;;15.77;3.90;;;5.20;99.90;;;;;;4989968;28;20381;-83
2021/10/23 04:19:29;;;;;;;16.75;3.53;;;5.20;99.90;;;;;;4991734;28;20504;-83
2021/10/23 04:21:55;;;;;;;15.02;3.72;;;5.10;99.90;;;;;;4993574;28;20420;-83
2021/10/23 04:24:29;;;;;;;16.87;3.90;;;5.10;99.90;;;;;;4992508;28;20535;-82
2021/10/23 04:26:54;;;;;;;13.30;3.67;;;5.10;99.90;;;;;;4991923;28;20864;-83
2021/10/23 04:29:21;;;;;;;16.02;3.55;;;5.00;99.90;;;;;;4992428;28;20388;-82
2021/10/23 04:31:47;;;;;;;15.53;3.40;;;5.00;99.90;;;;;;4993317;28;20969;-83
2021/10/23 04:34:14;;;;;;;16.23;3.90;;;4.90;99.90;;;;;;4992101;28;20388;-82
2021/10/23 04:36:39;;;;;;;16.33;4.03;;;4.90;99.90;;;;;;4993163;28;20893;-83
2021/10/23 04:39:05;;;;;;;20.60;4.43;;;4.90;99.90;;;;;;4991673;28;20501;-83
2021/10/23 04:41:31;;;;;;;18.05;4.57;;;4.70;99.90;;;;;;4991829;28;20902;-84
2021/10/23 04:43:56;;;;;;;13.43;3.83;;;4.80;99.90;;;;;;4992709;28;21187;-83
2021/10/23 04:46:22;;;;;;;15.43;3.60;;;4.70;99.90;;;;;;4993067;28;20811;-83
2021/10/23 04:48:47;;;;;;;15.70;4.10;;;4.70;99.90;;;;;;4991929;28;20802;-83
2021/10/23 04:51:13;;;;;;;15.73;3.60;;;4.70;99.90;;;;;;4993065;28;20419;-83
2021/10/23 04:53:38;;;;;;;16.98;4.10;;;4.70;99.90;;;;;;4993297;28;20377;-83
2021/10/23 04:56:04;;;;;;;18.48;4.22;;;4.70;99.90;;;;;;4991818;28;20491;-83
2021/10/23 04:58:30;;;;;;;12.90;3.77;;;4.60;99.90;;;;;;4991743;28;20416;-82
2021/10/23 05:00:59;;;;;;;15.40;4.40;;;4.60;99.90;;;;;;4993015;28;20420;-83
2021/10/23 05:03:26;;;;;;;18.60;4.28;;;4.60;99.90;;;;;;4992653;28;20399;-83
2021/10/23 05:05:51;;;;;;;14.43;4.07;;;4.60;99.90;;;;;;4992729;28;20468;-83
2021/10/23 05:08:17;;;;;;;13.93;3.53;;;4.60;99.90;;;;;;4991696;28;20392;-82
2021/10/23 05:10:42;;;;;;;15.97;4.07;;;4.60;99.90;;;;;;4991258;28;20751;-84
2021/10/23 05:13:08;;;;;;;18.77;3.63;;;4.60;99.90;;;;;;4991982;28;20487;-82
2021/10/23 05:15:34;;;;;;;14.95;3.65;;;4.60;99.90;;;;;;4991317;28;20381;-82
2021/10/23 05:17:59;;;;;;;13.37;3.50;;;4.70;99.90;;;;;;4990871;28;20388;-83
2021/10/23 05:20:25;;;;;;;13.27;3.50;;;4.70;99.90;;;;;;4991775;28;20982;-83
2021/10/23 05:22:50;;;;;;;13.77;3.72;;;4.70;99.90;;;;;;4991063;28;20906;-82
2021/10/23 05:25:16;;;;;;;15.30;3.72;;;4.80;99.90;;;;;;4991776;28;20496;-82
2021/10/23 05:27:42;;;;;;;15.33;3.97;;;4.70;99.90;;;;;;4990319;28;20388;-83
2021/10/23 05:30:07;;;;;;;14.90;3.30;;;4.70;99.90;;;;;;4992224;28;20747;-83
2021/10/23 05:32:33;;;;;;;14.10;3.60;;;4.70;99.90;;;;;;4992191;28;20396;-83
2021/10/23 05:34:59;;;;;;;14.43;4.03;;;4.70;99.90;;;;;;4990660;28;20873;-83
2021/10/23 05:37:24;;;;;;;18.95;4.32;;;4.70;99.90;;;;;;4991593;28;20443;-83
2021/10/23 05:39:50;;;;;;;16.80;4.20;;;4.60;99.90;;;;;;4992303;28;20377;-83
2021/10/23 05:42:15;;;;;;;15.10;3.90;;;4.70;99.90;;;;;;4991963;28;20385;-84
2021/10/23 05:44:41;;;;;;;12.77;3.78;;;4.60;99.90;;;;;;4992059;28;20412;-83
2021/10/23 05:47:07;;;;;;;15.35;4.00;;;4.60;99.90;;;;;;4990228;28;20425;-82
2021/10/23 05:49:33;;;;;;;15.38;3.85;;;4.60;99.90;;;;;;4990722;28;20381;-83
2021/10/23 05:51:58;;;;;;;13.77;3.43;;;4.50;99.90;;;;;;4991514;28;20393;-82
2021/10/23 05:54:24;;;;;;;17.15;4.22;;;4.50;99.90;;;;;;4991723;28;20421;-83
2021/10/23 05:56:50;;;;;;;12.98;3.83;;;4.50;99.90;;;;;;4991566;28;20408;-83
2021/10/23 05:59:16;;;;;;;13.38;3.75;;;4.50;99.90;;;;;;4991515;28;20397;-82
2021/10/23 06:01:44;;;;;;;14.10;3.90;;;4.50;99.90;;;;;;4990780;28;20400;-83
2021/10/23 06:04:10;;;;;;;16.13;3.67;;;4.50;99.90;;;;;;4989654;28;20401;-84
2021/10/23 06:06:37;;;;;;;13.43;3.75;;;4.60;99.90;;;;;;4991797;28;20404;-82
2021/10/23 06:09:04;;;;;;;15.27;3.50;;;4.70;99.90;;;;;;4990815;28;20380;-82
2021/10/23 06:11:30;;;;;;;12.65;3.65;;;4.60;99.90;;;;;;4990354;28;20391;-82
2021/10/23 06:13:58;;;;;;;16.60;3.97;;;4.70;99.90;;;;;;4991016;28;20467;-84
2021/10/23 06:16:23;;;;;;;15.88;4.15;;;4.80;99.90;;;;;;5006489;28;20405;-84
2021/10/23 06:18:49;;;;;;;14.50;3.92;;;4.80;99.90;;;;;;4989744;28;20723;-83
2021/10/23 06:21:15;;;;;;;16.67;4.13;;;4.90;99.90;;;;;;4990246;28;20381;-84
2021/10/23 06:23:41;;;;;;;10.95;3.22;;;5.00;99.90;;;;;;5005703;28;20397;-83
2021/10/23 06:26:06;;;;;;;17.73;3.83;;;5.00;99.90;;;;;;4989616;28;20423;-84
2021/10/23 06:28:36;;;;;;;15.00;3.70;;;5.10;99.90;;;;;;4990982;28;20385;-82
2021/10/23 06:31:03;;;;;;;14.13;3.95;;;5.20;99.90;;;;;;4990126;28;20389;-82
2021/10/23 06:33:29;;;;;;;15.57;3.90;;;5.40;99.90;;;;;;4988997;28;20398;-86
2021/10/23 06:35:54;;;;;;;14.57;3.45;;;5.40;99.90;;;;;;4990749;28;20523;-84
2021/10/23 06:38:20;;;;;;;14.33;3.53;;;5.60;99.90;;;;;;4990688;28;21090;-83
2021/10/23 06:40:46;;;;;;;12.07;3.13;;;5.60;99.90;;;;;;4990445;28;20803;-83
2021/10/23 06:43:12;;;;;;;17.08;3.85;;;5.70;99.90;;;;;;4989758;28;20768;-85
2021/10/23 06:45:38;;;;;;;13.10;3.75;;;5.80;99.90;;;;;;4989931;28;20402;-84
2021/10/23 06:48:04;;;;;;;12.70;3.80;;;5.90;99.90;;;;;;4989709;28;20423;-84
2021/10/23 06:50:29;;;;;;;15.18;3.72;;;5.90;99.90;;;;;;4990916;28;20432;-84
2021/10/23 06:52:55;;;;;;;13.10;3.80;;;6.00;99.90;;;;;;4990222;28;20871;-83
2021/10/23 06:55:21;;;;;;;15.83;4.13;;;6.00;99.90;;;;;;4990712;28;20880;-84
2021/10/23 06:57:46;;;;;;;11.00;3.60;;;6.00;99.90;;;;;;4989068;28;20468;-83
2021/10/23 07:00:13;;;;;;;14.50;3.78;;;6.10;99.90;;;;;;4990548;28;20401;-84
2021/10/23 07:02:44;;;;;;;11.30;3.47;;;6.20;99.90;;;;;;4988536;28;20816;-83
2021/10/23 07:05:15;;;;;;;16.45;3.72;;;6.30;99.90;;;;;;4990231;28;20421;-82
2021/10/23 07:07:42;;;;;;;14.07;3.83;;;6.40;99.90;;;;;;4990219;28;20384;-82
2021/10/23 07:10:08;;;;;;;16.63;3.63;;;6.40;99.90;;;;;;4990282;28;20460;-82
2021/10/23 07:12:34;;;;;;;16.20;3.70;;;6.50;99.90;;;;;;4988853;28;20887;-81
2021/10/23 07:15:00;;;;;;;16.73;3.95;;;6.70;99.90;;;;;;4988812;28;20416;-83
2021/10/23 07:17:26;;;;;;;12.00;3.50;;;6.70;99.90;;;;;;4990206;28;20400;-80
2021/10/23 07:19:52;;;;;;;14.15;4.03;;;6.70;99.90;;;;;;4988424;28;20815;-83
2021/10/23 07:22:19;;;;;;;14.68;3.70;;;6.70;99.90;;;;;;4990228;28;20890;-82
2021/10/23 07:24:45;;;;;;;14.07;3.47;;;6.80;99.90;;;;;;4987141;28;20887;-84
2021/10/23 07:27:10;;;;;;;13.60;3.78;;;6.90;99.90;;;;;;4989182;28;20384;-83
2021/10/23 07:29:37;;;;;;;10.70;3.57;;;7.10;99.90;;;;;;4988935;28;20729;-83
2021/10/23 07:32:03;;;;;;;12.73;3.50;;;7.20;99.90;;;;;;4990243;28;20395;-81
2021/10/23 07:34:28;;;;;;;12.40;3.40;;;7.30;99.90;;;;;;4989878;28;20427;-82
2021/10/23 07:36:57;;;;;;;9.87;3.70;;;7.30;99.90;;;;;;4988982;28;20787;-82
2021/10/23 07:39:23;;;;;;;15.15;4.68;;;7.40;99.90;;;;;;4989078;28;20403;-81
2021/10/23 07:41:50;;;;;;;14.55;4.47;;;7.60;99.90;;;;;;4990021;28;20467;-82
2021/10/23 07:44:15;;;;;;;12.75;4.22;;;7.40;99.90;;;;;;4989126;28;20381;-80
2021/10/23 07:46:41;;;;;;;16.67;4.40;;;7.40;99.90;;;;;;4988358;28;20494;-82
2021/10/23 07:49:08;;;;;;;12.73;3.27;;;7.40;99.90;;;;;;4988608;28;20443;-81
2021/10/23 07:51:35;;;;;;;12.88;4.00;;;7.50;99.90;;;;;;4986528;28;20393;-81
2021/10/23 07:54:02;;;;;;;11.48;3.85;;;7.50;99.90;;;;;;4987237;28;20906;-80
2021/10/23 07:56:28;;;;;;;13.80;3.87;;;7.60;99.90;;;;;;4989030;28;20944;-82
2021/10/23 07:58:53;;;;;;;12.77;3.73;;;7.70;99.90;;;;;;4988487;28;20396;-81
2021/10/23 08:01:19;;;;;;;12.32;3.83;;;7.80;99.90;;;;;;4987381;28;20790;-81
2021/10/23 08:03:44;;;;;;;12.97;3.60;;;7.80;99.90;;;;;;4989340;28;20743;-80
2021/10/23 08:06:10;;;;;;;10.60;3.30;;;7.90;99.90;;;;;;4989391;28;20431;-82
2021/10/23 08:08:36;;;;;;;12.35;3.47;;;8.00;99.90;;;;;;4988894;28;20471;-81
2021/10/23 08:11:04;;;;;;;13.73;3.42;;;8.10;99.90;;;;;;4990878;28;21152;-83
2021/10/23 08:13:30;;;;;;;10.63;3.42;;;8.30;99.90;;;;;;4989573;28;20389;-82
2021/10/23 08:15:57;;;;;;;12.70;3.73;;;8.60;99.90;;;;;;4989801;28;20894;-84
2021/10/23 08:18:23;;;;;;;13.88;3.75;;;8.70;99.90;;;;;;4988878;28;20871;-82
2021/10/23 08:20:49;;;;;;;14.82;3.42;;;8.70;99.90;;;;;;4989596;28;20392;-83
2021/10/23 08:23:15;;;;;;;11.98;3.17;;;8.90;99.90;;;;;;4989416;28;20720;-82
2021/10/23 08:25:42;;;;;;;11.57;3.60;;;9.20;99.90;;;;;;4988219;28;20919;-82
2021/10/23 08:28:08;;;;;;;14.10;3.70;;;9.60;99.90;;;;;;4989660;28;20380;-82
2021/10/23 08:30:34;;;;;;;12.70;3.65;;;9.80;99.90;;;;;;4988106;28;20404;-83
2021/10/23 08:33:00;;;;;;;13.95;3.63;;;9.70;99.90;;;;;;4989641;28;20380;-82
2021/10/23 08:35:25;;;;;;;11.20;3.58;;;9.50;99.90;;;;;;4988342;28;20479;-82
2021/10/23 08:37:53;;;;;;;14.02;3.47;;;9.40;99.90;;;;;;4988241;28;20516;-83
2021/10/23 08:40:20;;;;;;;11.30;3.60;;;9.50;99.90;;;;;;4987452;28;20909;-83
2021/10/23 08:42:47;;;;;;;11.93;3.90;;;9.60;99.90;;;;;;4987662;28;20393;-82
2021/10/23 08:45:14;;;;;;;12.18;3.78;;;9.50;99.90;;;;;;4989367;28;20412;-80
2021/10/23 08:47:42;;;;;;;11.27;3.15;;;9.50;99.90;;;;;;4988881;28;20412;-82
2021/10/23 08:50:11;;;;;;;12.73;3.60;;;9.70;99.90;;;;;;4989734;28;20385;-82
2021/10/23 08:52:37;;;;;;;12.00;3.75;;;9.60;99.90;;;;;;4989904;28;20480;-82
2021/10/23 08:55:04;;;;;;;13.75;3.90;;;9.50;99.90;;;;;;4987965;28;20377;-81
2021/10/23 08:57:30;;;;;;;13.27;3.53;;;9.40;99.90;;;;;;4987597;28;20397;-82
2021/10/23 08:59:56;;;;;;;13.10;3.47;;;9.30;99.90;;;;;;4989689;28;20377;-81
2021/10/23 09:02:24;;;;;;;12.23;3.70;;;9.30;99.90;;;;;;4988688;28;20408;-82
2021/10/23 09:04:50;;;;;;;14.10;4.22;;;9.40;99.90;;;;;;4991556;28;20542;-81
2021/10/23 09:07:17;;;;;;;10.95;4.10;;;9.30;99.90;;;;;;4992590;28;20393;-81
2021/10/23 09:09:52;;;;;;;13.63;3.78;;;9.20;99.90;;;;;;4991300;28;20472;-81
2021/10/23 09:12:21;;;;;;;11.20;3.40;;;9.20;99.90;;;;;;4990966;28;20407;-81
2021/10/23 09:14:47;;;;;;;16.52;4.03;;;9.40;99.90;;;;;;4990927;28;20389;-82
2021/10/23 09:17:14;;;;;;;12.25;3.17;;;9.60;99.90;;;;;;4991368;28;20412;-82
2021/10/23 09:19:44;;;;;;;11.57;3.40;;;9.80;99.90;;;;;;4992455;28;20415;-82
2021/10/23 09:22:22;;;;;;;15.88;3.15;;;9.90;99.90;;;;;;4991268;28;20463;-82
2021/10/23 09:24:49;;;;;;;11.68;3.70;;;9.80;99.90;;;;;;4991529;28;20445;-81
2021/10/23 09:27:17;;;;;;;10.57;3.42;;;10.10;99.90;;;;;;4991773;28;20377;-81
2021/10/23 09:29:43;;;;;;;13.20;3.90;;;10.40;99.90;;;;;;4992198;28;20384;-81
2021/10/23 09:32:10;;;;;;;11.93;3.60;;;10.70;99.90;;;;;;4991900;28;20444;-81
2021/10/23 09:34:36;;;;;;;13.93;3.90;;;10.90;99.90;;;;;;4991043;28;20432;-82
2021/10/23 09:37:03;;;;;;;11.30;3.37;;;10.90;99.90;;;;;;4990460;28;20389;-82
2021/10/23 09:39:33;;;;;;;12.40;3.83;;;11.10;99.90;;;;;;4992071;28;20456;-82
2021/10/23 09:42:19;;;;;;;17.25;4.65;;;11.00;99.90;;;;;;4990908;28;20392;-82
2021/10/23 09:45:03;;;;;;;10.98;3.50;;;10.90;99.90;;;;;;4977680;28;20721;-81
2021/10/23 09:47:45;;;;;;;12.10;4.30;;;10.60;99.90;;;;;;4992064;28;20419;-82
2021/10/23 09:50:19;;;;;;;11.38;3.88;;;10.50;99.90;;;;;;4992046;28;20496;-82
2021/10/23 09:52:59;;;;;;;12.50;3.33;;;10.40;99.90;;;;;;4991768;28;20403;-82
2021/10/23 09:55:28;;;;;;;13.90;3.60;;;10.20;99.90;;;;;;4992302;28;20381;-80
2021/10/23 09:58:14;;;;;;;12.07;3.35;;;10.10;99.90;;;;;;4990649;28;20421;-81
2021/10/23 10:00:42;;;;;;;11.13;3.53;;;10.00;99.90;;;;;;4990531;28;20389;-81
2021/10/23 10:03:08;;;;;;;14.70;3.50;;;10.10;99.90;;;;;;4991025;28;20793;-81
2021/10/23 10:05:34;;;;;;;9.95;2.95;;;10.10;99.90;;;;;;4990308;28;20404;-81
2021/10/23 10:08:09;;;;;;;11.63;3.30;;;10.10;99.90;;;;;;4990543;28;20393;-83
2021/10/23 10:10:41;;;;;;;14.82;3.72;;;10.20;99.90;;;;;;4987497;28;20398;-81
2021/10/23 10:13:09;;;;;;;13.23;3.70;;;10.20;99.90;;;;;;4980537;28;20389;-81
2021/10/23 10:15:35;;;;;;;13.00;3.30;;;10.30;99.90;;;;;;4991215;28;20392;-80
2021/10/23 10:18:05;;;;;;;12.00;3.30;;;10.40;99.90;;;;;;4990845;28;20415;-81
2021/10/23 10:20:34;;;;;;;13.25;4.22;;;10.60;99.90;;;;;;4990764;28;20420;-82
2021/10/23 10:23:00;;;;;;;11.13;3.47;;;10.80;99.90;;;;;;4989171;28;20438;-81
2021/10/23 10:25:26;;;;;;;10.10;3.30;;;11.00;99.90;;;;;;4990079;28;20409;-81
2021/10/23 10:27:53;;;;;;;9.77;3.22;;;10.90;99.90;;;;;;4991558;28;20384;-82
2021/10/23 10:30:29;;;;;;;12.30;3.20;;;10.80;99.90;;;;;;4990059;28;20717;-82
2021/10/23 10:33:19;;;;;;;14.73;4.00;;;11.00;99.90;;;;;;4990205;28;20412;-80
2021/10/23 10:36:05;;;;;;;11.00;3.92;;;11.20;99.90;;;;;;4991743;28;20391;-84
2021/10/23 10:44:15;;;;;;;11.77;3.30;;;11.10;99.90;;;;;;4991634;28;20393;-83
2021/10/23 10:47:06;;;;;;;11.70;3.40;;;11.00;99.90;;;;;;4990981;28;20499;-85
2021/10/23 10:49:53;;;;;;;11.70;3.90;;;11.00;99.90;;;;;;4989588;28;20450;-81
2021/10/23 10:52:40;;;;;;;10.00;3.22;;;11.00;99.90;;;;;;4991547;28;20894;-83
2021/10/23 10:55:16;;;;;;;9.70;3.57;;;10.80;99.90;;;;;;4989906;28;20944;-81
2021/10/23 10:58:05;;;;;;;10.17;3.77;;;10.80;99.90;;;;;;4973359;28;20420;-82
2021/10/23 11:00:46;;;;;;;14.73;3.72;;;10.80;99.90;;;;;;4991024;28;20867;-82
2021/10/23 11:03:38;;;;;;;12.88;3.88;;;10.90;99.90;;;;;;4990405;28;20429;-80
2021/10/23 11:09:14;;;;;;;12.85;3.65;;;11.20;99.90;;;;;;4990419;28;20419;-82
2021/10/23 11:11:46;;;;;;;12.70;3.80;;;11.50;99.90;;;;;;4989543;28;20404;-80
2021/10/23 11:16:55;;;;;;;13.60;3.70;;;12.10;99.90;;;;;;4988457;28;20409;-81
2021/10/23 11:19:21;;;;;;;13.07;3.33;;;12.10;99.90;;;;;;4985766;28;20392;-80
2021/10/23 11:21:54;;;;;;;16.63;3.60;;;11.90;99.90;;;;;;4981312;28;20865;-83
2021/10/23 11:24:21;;;;;;;12.65;3.70;;;11.90;99.90;;;;;;4981924;28;20399;-82
2021/10/23 11:26:51;;;;;;;10.23;2.87;;;12.10;99.90;;;;;;4983061;28;20408;-81
2021/10/23 11:29:27;;;;;;;11.15;3.50;;;12.40;99.90;;;;;;4979283;28;20476;-84
2021/10/23 11:32:01;;;;;;;9.02;3.13;;;12.50;99.90;;;;;;4980515;28;20425;-81
2021/10/23 11:34:31;;;;;;;12.65;4.40;;;12.70;99.90;;;;;;4979573;28;20496;-81
2021/10/23 11:37:03;;;;;;;10.38;3.50;;;12.80;99.90;;;;;;4979879;28;20957;-82
2021/10/23 11:39:36;;;;;;;10.25;3.30;;;12.80;99.90;;;;;;4980488;28;20429;-83
2021/10/23 11:42:20;;;;;;;13.38;3.85;;;12.60;99.90;;;;;;4981803;28;20395;-80
2021/10/23 11:44:48;;;;;;;13.80;3.83;;;12.50;99.90;;;;;;4981098;28;20377;-81
2021/10/23 11:47:32;;;;;;;14.80;3.83;;;12.40;99.90;;;;;;4982630;28;20400;-81
2021/10/23 11:50:03;;;;;;;9.00;3.47;;;12.00;99.90;;;;;;4983662;28;20380;-81
2021/10/23 11:52:31;;;;;;;11.93;3.45;;;11.60;99.90;;;;;;4979609;28;20383;-81
2021/10/23 11:55:04;;;;;;;13.30;3.55;;;11.30;99.90;;;;;;4976351;28;20382;-82
2021/10/23 11:57:34;;;;;;;13.65;3.92;;;11.10;99.90;;;;;;4975909;28;20382;-83
2021/10/23 12:00:00;;;;;;;10.27;3.45;;;11.00;99.90;;;;;;4978994;28;20461;-79
2021/10/23 12:02:49;;;;;;;11.52;3.63;;;11.00;99.90;;;;;;4976343;28;20419;-81
2021/10/23 12:05:36;;;;;;;13.52;3.38;;;10.90;99.90;;;;;;4979537;28;20420;-82
2021/10/23 12:08:30;;;;;;;12.97;4.10;;;11.00;99.90;;;;;;4984617;28;20494;-84
2021/10/23 12:11:19;;;;;;;10.52;3.08;;;11.20;99.90;;;;;;4966718;28;20398;-82
2021/10/23 12:13:55;;;;;;;9.25;2.90;;;11.40;99.90;;;;;;4976406;28;20792;-80
2021/10/23 12:16:29;;;;;;;12.85;3.30;;;11.70;99.90;;;;;;4986841;28;20818;-85
2021/10/23 12:19:04;;;;;;;12.00;2.92;;;12.10;99.90;;;;;;4985919;28;20407;-82
2021/10/23 12:21:43;;;;;;;8.25;2.70;;;12.40;99.90;;;;;;4986429;28;20388;-81
2021/10/23 12:24:16;;;;;;;12.77;3.78;;;12.60;99.90;;;;;;4986349;28;20540;-81
2021/10/23 12:26:42;;;;;;;12.93;3.60;;;12.70;99.90;;;;;;4986121;28;20434;-81
2021/10/23 12:29:11;;;;;;;12.93;2.90;;;12.70;99.90;;;;;;4985097;28;20428;-81
2021/10/23 12:32:11;;;;;;;10.57;3.35;;;12.60;99.90;;;;;;4987466;28;20407;-81
2021/10/23 12:34:49;;;;;;;9.27;2.85;;;12.50;99.90;;;;;;4986501;28;20404;-80
2021/10/23 12:37:28;;;;;;;9.38;3.17;;;12.40;99.90;;;;;;4987575;28;20404;-81
2021/10/23 12:40:21;;;;;;;9.90;3.13;;;12.40;99.90;;;;;;4988844;28;20478;-81
2021/10/23 12:42:57;;;;;;;7.80;2.87;;;12.30;99.90;;;;;;4990415;28;20820;-81
2021/10/23 12:45:29;;;;;;;10.75;3.10;;;12.40;99.90;;;;;;4990191;28;20491;-83
2021/10/23 12:47:58;;;;;;;10.60;2.95;;;12.20;99.90;;;;;;4991281;28;20448;-81
2021/10/23 12:50:24;;;;;;;9.52;2.90;;;12.00;99.90;;;;;;4990301;28;20475;-80
2021/10/23 12:52:52;;;;;;;11.68;3.72;;;11.80;99.90;;;;;;4992141;28;20377;-80
2021/10/23 12:55:18;;;;;;;11.00;3.28;;;11.80;99.90;;;;;;4999338;28;20411;-80
2021/10/23 12:57:44;;;;;;;8.63;3.15;;;11.60;99.90;;;;;;4997854;28;20385;-80
2021/10/23 13:00:10;;;;;;;10.57;3.35;;;11.50;99.90;;;;;;5005329;28;20403;-80
2021/10/23 13:02:36;;;;;;;12.33;3.47;;;11.50;99.90;;;;;;4976278;28;20383;-82
2021/10/23 13:05:04;;;;;;;10.23;3.05;;;11.40;99.90;;;;;;5001300;28;20567;-82
2021/10/23 13:07:29;;;;;;;12.32;3.92;;;11.20;99.90;;;;;;5000604;28;20379;-82
2021/10/23 13:09:55;;;;;;;14.45;4.75;;;11.10;99.90;;;;;;4990946;28;20390;-82
2021/10/23 13:12:21;;;;;;;10.93;3.38;;;11.10;99.90;;;;;;4985598;28;20415;-80
2021/10/23 13:14:47;;;;;;;11.87;3.47;;;11.20;99.90;;;;;;4981715;28;20397;-82
2021/10/23 13:17:13;;;;;;;10.00;3.60;;;11.30;99.90;;;;;;4981284;28;20383;-80
2021/10/23 13:19:38;;;;;;;10.97;3.13;;;11.40;99.90;;;;;;4983465;28;20412;-81
2021/10/23 13:22:07;;;;;;;15.07;3.20;;;11.30;99.90;;;;;;4994793;28;20401;-82
2021/10/23 13:24:33;;;;;;;12.67;3.00;;;11.40;99.90;;;;;;4990685;28;20409;-81
2021/10/23 13:26:58;;;;;;;11.53;2.90;;;11.40;99.90;;;;;;4994956;28;20412;-81
2021/10/23 13:29:24;;;;;;;9.70;2.80;;;11.50;99.90;;;;;;4999423;28;20434;-80
2021/10/23 13:31:50;;;;;;;11.07;2.90;;;11.60;99.90;;;;;;4993990;28;20435;-82
2021/10/23 13:34:16;;;;;;;10.32;2.70;;;11.70;99.90;;;;;;5002507;28;20397;-82
2021/10/23 13:36:41;;;;;;;10.03;2.80;;;11.60;99.90;;;;;;4993906;28;20734;-83
2021/10/23 13:39:08;;;;;;;8.93;2.80;;;11.60;99.90;;;;;;5002247;28;20871;-81
2021/10/23 13:41:38;;;;;;;9.77;2.92;;;11.60;99.90;;;;;;5000035;28;20398;-82
2021/10/23 13:44:05;;;;;;;9.00;2.80;;;11.60;99.90;;;;;;4992613;28;20472;-82
2021/10/23 13:46:31;;;;;;;9.95;2.83;;;11.60;99.90;;;;;;5006091;28;20414;-81
2021/10/23 13:48:57;;;;;;;11.88;2.95;;;11.50;99.90;;;;;;4996701;28;20516;-82
2021/10/23 13:51:22;;;;;;;11.07;3.53;;;11.50;99.90;;;;;;4999309;28;20912;-82
2021/10/23 13:53:48;;;;;;;11.63;3.47;;;11.50;99.90;;;;;;5003635;28;20379;-87
2021/10/23 13:56:14;;;;;;;14.82;3.30;;;11.40;99.90;;;;;;4992634;28;20408;-84
2021/10/23 13:58:39;;;;;;;9.17;3.27;;;11.40;99.90;;;;;;5003055;28;20389;-82
2021/10/23 14:01:06;;;;;;;9.55;3.30;;;11.40;99.90;;;;;;4991182;28;20752;-81
2021/10/23 14:03:32;;;;;;;11.52;3.20;;;11.40;99.90;;;;;;4999422;28;20402;-81
2021/10/23 14:05:58;;;;;;;9.63;2.78;;;11.30;99.90;;;;;;4991950;28;21221;-81
2021/10/23 14:08:23;;;;;;;10.57;3.50;;;11.30;99.90;;;;;;5005642;28;20402;-81
2021/10/23 14:10:49;;;;;;;10.93;3.17;;;11.30;99.90;;;;;;4992488;28;20757;-81
2021/10/23 14:13:15;;;;;;;12.10;2.83;;;11.40;99.90;;;;;;4998658;28;20464;-82
2021/10/23 14:15:41;;;;;;;11.90;2.83;;;11.30;99.90;;;;;;5000448;28;20391;-83
2021/10/23 14:18:08;;;;;;;11.40;3.10;;;11.30;99.90;;;;;;4991646;28;21253;-82
2021/10/23 14:20:35;;;;;;;12.10;3.15;;;11.30;99.90;;;;;;4992594;28;20477;-84
2021/10/23 14:23:00;;;;;;;12.43;3.07;;;11.10;99.90;;;;;;5001721;28;20396;-83
2021/10/23 14:25:29;;;;;;;11.43;3.30;;;11.00;99.90;;;;;;4999916;28;21387;-84
2021/10/23 14:27:57;;;;;;;8.07;3.08;;;10.90;99.90;;;;;;4994766;28;20377;-83
2021/10/23 14:30:25;;;;;;;10.15;3.55;;;10.80;99.90;;;;;;4990796;28;20894;-82
2021/10/23 14:32:51;;;;;;;12.05;3.50;;;10.70;99.90;;;;;;5001822;28;20957;-84
2021/10/23 14:35:17;;;;;;;12.13;3.33;;;10.70;99.90;;;;;;4997410;28;20474;-81
2021/10/23 14:37:43;;;;;;;15.20;3.60;;;10.60;99.90;;;;;;4996037;28;20636;-82
2021/10/23 14:40:10;;;;;;;13.07;3.40;;;10.60;99.90;;;;;;5003671;28;20390;-82
2021/10/23 14:42:36;;;;;;;12.25;4.45;;;10.70;99.90;;;;;;4975733;28;20394;-82
2021/10/23 14:45:02;;;;;;;12.07;4.55;;;10.70;99.90;;;;;;5001588;28;20439;-82
2021/10/23 14:47:28;;;;;;;13.75;5.38;;;10.70;99.90;;;;;;4998869;28;20387;-83
2021/10/23 14:49:54;;;;;;;13.70;5.30;;;10.70;99.90;;;;;;4994803;28;20424;-81
2021/10/23 14:52:20;;;;;;;13.83;5.20;;;10.70;99.90;;;;;;5005785;28;20396;-82
2021/10/23 14:54:45;;;;;;;12.15;5.00;;;10.80;99.90;;;;;;4994549;28;20387;-82
2021/10/23 14:57:11;;;;;;;12.43;5.40;;;10.70;99.90;;;;;;4998878;28;20418;-83
2021/10/23 14:59:37;;;;;;;10.10;4.38;;;10.80;99.90;;;;;;4997045;28;20439;-82
2021/10/23 15:02:03;;;;;;;11.03;3.87;;;10.80;99.90;;;;;;5001654;28;20405;-82
2021/10/23 15:04:29;;;;;;;11.33;3.67;;;10.90;99.90;;;;;;4990631;28;20405;-83
2021/10/23 15:06:54;;;;;;;12.60;4.37;;;10.90;99.90;;;;;;5002328;28;20411;-81
2021/10/23 15:09:20;;;;;;;12.07;4.32;;;10.70;99.90;;;;;;4997947;28;20813;-82
2021/10/23 15:11:47;;;;;;;13.60;5.25;;;10.70;99.90;;;;;;5004526;28;20383;-82
2021/10/23 15:14:12;;;;;;;12.57;4.47;;;10.60;99.90;;;;;;4989583;28;20401;-83
2021/10/23 15:16:38;;;;;;;14.17;4.87;;;10.50;99.90;;;;;;5001957;28;20458;-82
2021/10/23 15:19:04;;;;;;;8.18;3.90;;;10.30;99.90;;;;;;4995698;28;20379;-83
2021/10/23 15:21:30;;;;;;;13.00;4.53;;;10.20;99.90;;;;;;4986194;28;20442;-83
2021/10/23 15:23:55;;;;;;;11.73;4.53;;;10.10;99.90;;;;;;4996137;28;20438;-82
2021/10/23 15:26:21;;;;;;;12.60;4.67;;;10.00;99.90;;;;;;4991256;28;20904;-80
2021/10/23 15:28:50;;;;;;;13.25;3.85;;;10.00;99.90;;;;;;4998622;28;20414;-82
2021/10/23 15:31:20;;;;;;;10.05;4.05;;;9.90;99.90;;;;;;4997431;28;20392;-82
2021/10/23 15:33:46;;;;;;;8.48;3.58;;;9.80;99.90;;;;;;4998678;28;20394;-81
2021/10/23 15:36:11;;;;;;;11.85;4.10;;;9.80;99.90;;;;;;4990303;28;20474;-83
2021/10/23 15:38:51;;;;;;;11.33;4.37;;;9.70;99.90;;;;;;5003160;28;20492;-82
2021/10/23 15:43:51;;;;;;;9.40;5.10;;;9.50;99.90;;;;;;4995838;28;20451;-82
2021/10/23 15:46:17;;;;;;;12.68;6.20;;;9.30;99.90;;;;;;4987119;28;20452;-82
2021/10/23 15:48:43;;;;;;;12.10;6.15;;;9.20;99.90;;;;;;4996238;28;20488;-81
2021/10/23 15:51:09;;;;;;;12.53;5.97;;;9.10;99.90;;;;;;4998281;28;20430;-82
2021/10/23 15:53:35;;;;;;;12.43;5.30;;;9.00;99.90;;;;;;4995301;28;20416;-82
2021/10/23 15:56:01;;;;;;;11.95;5.57;;;8.90;99.90;;;;;;4984239;28;20389;-82
2021/10/23 15:58:27;;;;;;;13.45;6.68;;;8.80;99.90;;;;;;4995206;28;20405;-82
2021/10/23 16:00:53;;;;;;;14.50;7.20;;;8.80;99.90;;;;;;5000327;28;20432;-82
2021/10/23 16:03:19;;;;;;;13.98;7.25;;;8.60;99.90;;;;;;4996408;28;20449;-82
2021/10/23 16:05:44;;;;;;;15.47;8.20;;;8.50;99.90;;;;;;4993924;28;20416;-82
2021/10/23 16:08:10;;;;;;;15.47;7.37;;;8.40;99.90;;;;;;4979878;28;20477;-81
2021/10/23 16:10:37;;;;;;;14.25;6.90;;;8.30;99.90;;;;;;4995141;28;20818;-82
2021/10/23 16:13:04;;;;;;;13.98;6.40;;;8.20;99.90;;;;;;5001017;28;20396;-81
2021/10/23 16:15:31;;;;;;;16.98;6.80;;;8.10;99.90;;;;;;4994852;28;20519;-81
2021/10/23 16:17:57;;;;;;;11.82;6.60;;;8.00;99.90;;;;;;4994379;28;20396;-82
2021/10/23 16:20:25;;;;;;;15.57;6.80;;;7.90;99.90;;;;;;5001913;28;20391;-82
2021/10/23 16:22:51;;;;;;;13.55;6.70;;;7.80;99.90;;;;;;4997787;28;20389;-82
2021/10/23 16:25:17;;;;;;;13.83;5.97;;;7.70;99.90;;;;;;4998826;28;20452;-81
2021/10/23 16:27:42;;;;;;;14.53;6.30;;;7.70;99.90;;;;;;4990718;28;20428;-81
2021/10/23 16:30:09;;;;;;;13.70;5.47;;;7.60;99.90;;;;;;5000365;28;20896;-82
2021/10/23 16:32:34;;;;;;;12.00;5.90;;;7.60;99.90;;;;;;4982535;28;20395;-81